Time;durP1;ratioP1;P1;durP2;ratioP2;P2;SDS_P1;SDS_P2;PMS_P1;PMS_P2;Temp;Humidity;BMP_temperature;BMP_pressure;BME280_temperature;BME280_humidity;BME280_pressure;Samples;Min_cycle;Max_cycle;Signal;HPM_P1;HPM_P2
2022/07/25 00:02:23;;;;;;;11.43;5.60;;;23.00;97.80;;;;;;5070826;28;20494;-74
2022/07/25 00:04:48;;;;;;;12.32;5.82;;;23.00;97.90;;;;;;5070577;28;20027;-74
2022/07/25 00:07:14;;;;;;;7.60;5.57;;;23.00;98.00;;;;;;5070610;28;20020;-74
2022/07/25 00:09:40;;;;;;;10.50;5.80;;;23.00;98.20;;;;;;5070283;28;20380;-75
2022/07/25 00:12:06;;;;;;;8.57;5.80;;;23.00;98.30;;;;;;5070582;28;20029;-75
2022/07/25 00:14:31;;;;;;;8.15;5.57;;;22.90;98.40;;;;;;5070490;28;20021;-75
2022/07/25 00:16:57;;;;;;;9.98;5.80;;;22.90;98.60;;;;;;5070400;28;20048;-74
2022/07/25 00:19:22;;;;;;;13.18;5.88;;;22.80;98.80;;;;;;5070548;28;20538;-75
2022/07/25 00:21:49;;;;;;;10.57;5.75;;;22.90;99.00;;;;;;5070729;28;20056;-74
2022/07/25 00:24:14;;;;;;;9.60;5.82;;;22.90;99.20;;;;;;5070143;28;20081;-74
2022/07/25 00:26:40;;;;;;;8.07;5.90;;;22.80;99.50;;;;;;5064677;28;20389;-74
2022/07/25 00:29:05;;;;;;;8.73;6.28;;;22.80;99.80;;;;;;5062311;28;20031;-74
2022/07/25 00:31:31;;;;;;;7.68;5.82;;;22.80;99.90;;;;;;5066710;28;20084;-75
2022/07/25 00:33:57;;;;;;;10.90;7.00;;;22.80;99.90;;;;;;5059834;28;20547;-74
2022/07/25 00:36:22;;;;;;;9.85;6.40;;;22.80;99.90;;;;;;5070241;28;20029;-75
2022/07/25 00:38:48;;;;;;;8.82;6.55;;;22.70;99.90;;;;;;5070023;28;20093;-74
2022/07/25 00:41:13;;;;;;;9.73;6.60;;;22.70;99.90;;;;;;5070205;28;20064;-75
2022/07/25 00:43:43;;;;;;;9.52;6.55;;;22.70;99.90;;;;;;5055213;28;20017;-74
2022/07/25 00:46:14;;;;;;;9.35;6.70;;;22.70;99.90;;;;;;5062609;28;20067;-74
2022/07/25 00:48:40;;;;;;;8.43;5.97;;;22.70;99.90;;;;;;5070179;28;20557;-74
2022/07/25 00:51:07;;;;;;;7.97;6.20;;;22.60;99.90;;;;;;5070204;28;20021;-74
2022/07/25 00:53:33;;;;;;;10.52;5.88;;;22.70;99.90;;;;;;5054905;28;20017;-74
2022/07/25 00:55:59;;;;;;;8.77;6.30;;;22.60;99.90;;;;;;5059784;28;20070;-74
2022/07/25 00:58:25;;;;;;;9.35;6.30;;;22.60;99.90;;;;;;5052100;28;20469;-74
2022/07/25 01:00:50;;;;;;;8.07;6.38;;;22.60;99.90;;;;;;5062913;28;20021;-75
2022/07/25 01:03:16;;;;;;;9.90;6.55;;;22.60;99.90;;;;;;5045403;28;20021;-74
2022/07/25 01:05:42;;;;;;;8.52;6.70;;;22.60;99.90;;;;;;5070466;28;20020;-74
2022/07/25 01:08:08;;;;;;;10.27;6.80;;;22.60;99.90;;;;;;5062346;28;20043;-75
2022/07/25 01:10:34;;;;;;;8.30;6.35;;;22.60;99.90;;;;;;5069858;28;20473;-74
2022/07/25 01:13:00;;;;;;;11.20;6.95;;;22.60;99.90;;;;;;5070148;28;20024;-74
2022/07/25 01:15:26;;;;;;;8.30;6.28;;;22.60;99.90;;;;;;5055729;28;20017;-76
2022/07/25 01:17:52;;;;;;;9.73;6.70;;;22.60;99.90;;;;;;5070042;28;20026;-74
2022/07/25 01:20:21;;;;;;;8.82;6.30;;;22.60;99.90;;;;;;5069814;28;20135;-74
2022/07/25 01:22:47;;;;;;;9.57;6.63;;;22.60;99.90;;;;;;5069746;28;20060;-74
2022/07/25 01:25:14;;;;;;;9.07;6.05;;;22.60;99.90;;;;;;5069920;28;20056;-74
2022/07/25 01:27:40;;;;;;;9.10;7.00;;;22.50;99.90;;;;;;5069828;28;20055;-74
2022/07/25 01:30:09;;;;;;;9.85;6.82;;;22.50;99.90;;;;;;5055847;28;20016;-76
2022/07/25 01:32:35;;;;;;;11.55;6.63;;;22.50;99.90;;;;;;5069853;28;20035;-74
2022/07/25 01:35:02;;;;;;;12.98;6.82;;;22.50;99.90;;;;;;5055790;28;20028;-75
2022/07/25 01:37:27;;;;;;;11.68;6.75;;;22.50;99.90;;;;;;5061182;28;20055;-75
2022/07/25 01:39:53;;;;;;;10.23;6.90;;;22.50;99.90;;;;;;5069641;28;20056;-75
2022/07/25 01:42:18;;;;;;;11.43;6.93;;;22.50;99.90;;;;;;5069669;28;20024;-75
2022/07/25 01:44:44;;;;;;;11.27;7.00;;;22.50;99.90;;;;;;5061778;28;20108;-74
2022/07/25 01:47:10;;;;;;;10.57;7.13;;;22.50;99.90;;;;;;5073297;28;20391;-74
2022/07/25 01:49:35;;;;;;;9.25;7.18;;;22.50;99.90;;;;;;5073305;28;20024;-74
2022/07/25 01:52:01;;;;;;;11.02;6.80;;;22.50;99.90;;;;;;5068995;28;20028;-75
2022/07/25 01:54:26;;;;;;;9.43;6.90;;;22.50;99.90;;;;;;5073349;28;20025;-74
2022/07/25 01:56:52;;;;;;;9.95;6.40;;;22.50;99.90;;;;;;5072794;28;20052;-75
2022/07/25 01:59:18;;;;;;;10.73;6.88;;;22.50;99.90;;;;;;5072866;28;20373;-76
2022/07/25 02:01:43;;;;;;;12.73;6.72;;;22.40;99.90;;;;;;5058914;28;20477;-75
2022/07/25 02:04:09;;;;;;;11.48;6.57;;;22.40;99.90;;;;;;5073014;28;20020;-74
2022/07/25 02:06:35;;;;;;;11.25;6.45;;;22.40;99.90;;;;;;5072849;28;20392;-74
2022/07/25 02:09:01;;;;;;;10.80;6.47;;;22.40;99.90;;;;;;5058735;28;20021;-74
2022/07/25 02:11:26;;;;;;;10.43;6.55;;;22.40;99.90;;;;;;5072910;28;20040;-74
2022/07/25 02:13:52;;;;;;;13.48;7.00;;;22.40;99.90;;;;;;5072780;28;20028;-74
2022/07/25 02:16:18;;;;;;;9.25;6.85;;;22.40;99.90;;;;;;5072917;28;20158;-74
2022/07/25 02:18:44;;;;;;;10.73;6.75;;;22.40;99.90;;;;;;5072768;28;20388;-74
2022/07/25 02:21:10;;;;;;;9.18;6.65;;;22.40;99.90;;;;;;5065854;28;20037;-74
2022/07/25 02:23:36;;;;;;;9.07;6.10;;;22.40;99.90;;;;;;5070613;28;20024;-75
2022/07/25 02:26:02;;;;;;;7.10;5.95;;;22.40;99.90;;;;;;5072429;28;20070;-74
2022/07/25 02:28:28;;;;;;;11.05;6.60;;;22.40;99.90;;;;;;5072502;28;20044;-75
2022/07/25 02:30:53;;;;;;;9.77;6.40;;;22.40;99.90;;;;;;5072361;28;20020;-75
2022/07/25 02:33:19;;;;;;;8.68;5.95;;;22.40;99.90;;;;;;5072772;28;20095;-75
2022/07/25 02:35:45;;;;;;;10.00;6.50;;;22.30;99.90;;;;;;5072257;28;20419;-74
2022/07/25 02:38:17;;;;;;;8.23;6.13;;;22.30;99.90;;;;;;5069099;28;20396;-75
2022/07/25 02:40:43;;;;;;;7.68;5.88;;;22.30;99.90;;;;;;5061880;28;20373;-74
2022/07/25 02:43:08;;;;;;;8.85;5.90;;;22.30;99.90;;;;;;5072127;28;20093;-75
2022/07/25 02:45:34;;;;;;;11.40;6.75;;;22.30;99.90;;;;;;5071994;28;20103;-75
2022/07/25 02:47:59;;;;;;;10.05;6.60;;;22.30;99.90;;;;;;5058738;28;20021;-74
2022/07/25 02:50:25;;;;;;;7.97;6.20;;;22.20;99.90;;;;;;5070069;28;20021;-74
2022/07/25 02:52:50;;;;;;;10.10;6.15;;;22.20;99.90;;;;;;5071968;28;20024;-74
2022/07/25 02:55:16;;;;;;;8.68;6.28;;;22.20;99.90;;;;;;5071693;28;20020;-74
2022/07/25 02:57:41;;;;;;;8.35;6.88;;;22.10;99.90;;;;;;5071771;28;20472;-75
2022/07/25 03:00:08;;;;;;;11.57;6.63;;;22.10;99.90;;;;;;5071774;28;20279;-74
2022/07/25 03:02:35;;;;;;;9.40;6.57;;;22.10;99.90;;;;;;5071487;28;20308;-74
2022/07/25 03:05:01;;;;;;;10.77;7.60;;;22.10;99.90;;;;;;5071546;28;20016;-74
2022/07/25 03:07:26;;;;;;;12.57;7.47;;;22.00;99.90;;;;;;5071105;28;20365;-75
2022/07/25 03:09:52;;;;;;;12.05;8.07;;;22.00;99.90;;;;;;5071699;28;20023;-74
2022/07/25 03:12:17;;;;;;;12.40;7.75;;;22.00;99.90;;;;;;5071853;28;20484;-74
2022/07/25 03:14:43;;;;;;;11.02;8.13;;;22.00;99.90;;;;;;5060297;28;20465;-74
2022/07/25 03:17:08;;;;;;;10.50;8.35;;;21.90;99.90;;;;;;5068947;28;20027;-75
2022/07/25 03:19:34;;;;;;;11.40;8.07;;;21.90;99.90;;;;;;5071290;28;20078;-74
2022/07/25 03:21:59;;;;;;;10.23;7.75;;;21.90;99.90;;;;;;5071256;28;20036;-74
2022/07/25 03:24:25;;;;;;;12.35;8.23;;;22.00;99.90;;;;;;5071384;28;20031;-74
2022/07/25 03:26:50;;;;;;;11.60;8.38;;;21.90;99.90;;;;;;5071463;28;20027;-75
2022/07/25 03:29:16;;;;;;;12.88;8.05;;;21.90;99.90;;;;;;5066621;28;20028;-75
2022/07/25 03:31:41;;;;;;;11.00;7.88;;;21.90;99.90;;;;;;5051806;28;20087;-75
2022/07/25 03:34:07;;;;;;;11.68;7.32;;;21.90;99.90;;;;;;5067711;28;20025;-74
2022/07/25 03:36:32;;;;;;;11.73;7.57;;;21.90;99.90;;;;;;5070893;28;20047;-74
2022/07/25 03:38:58;;;;;;;11.13;7.13;;;22.00;99.90;;;;;;5071129;28;20031;-75
2022/07/25 03:41:24;;;;;;;8.65;6.55;;;22.00;99.90;;;;;;5070411;28;20028;-74
2022/07/25 03:43:49;;;;;;;12.35;6.70;;;22.00;99.90;;;;;;5062113;28;20016;-75
2022/07/25 03:46:15;;;;;;;10.85;6.32;;;21.90;99.90;;;;;;5069217;28;20048;-75
2022/07/25 03:48:40;;;;;;;11.70;6.70;;;22.00;99.90;;;;;;5070870;28;20428;-74
2022/07/25 03:51:06;;;;;;;9.25;6.72;;;21.90;99.90;;;;;;5069188;28;20020;-74
2022/07/25 03:53:31;;;;;;;8.13;6.25;;;21.90;99.90;;;;;;5053104;28;20025;-74
2022/07/25 03:55:57;;;;;;;11.60;6.15;;;21.90;99.90;;;;;;5070543;28;20020;-74
2022/07/25 03:58:23;;;;;;;9.73;6.88;;;21.90;99.90;;;;;;5071007;28;20032;-74
2022/07/25 04:00:48;;;;;;;11.25;6.65;;;21.90;99.90;;;;;;5072137;28;20041;-74
2022/07/25 04:03:15;;;;;;;13.18;6.35;;;21.90;99.90;;;;;;5071099;28;20150;-74
2022/07/25 04:05:41;;;;;;;9.68;6.13;;;21.90;99.90;;;;;;5067044;28;20095;-74
2022/07/25 04:08:07;;;;;;;6.70;6.05;;;21.80;99.90;;;;;;5069704;28;20020;-73
2022/07/25 04:10:33;;;;;;;8.95;6.03;;;21.80;99.90;;;;;;5064965;28;20487;-74
2022/07/25 04:12:58;;;;;;;12.15;5.82;;;21.80;99.90;;;;;;5064661;28;20032;-75
2022/07/25 04:15:24;;;;;;;8.93;5.80;;;21.80;99.90;;;;;;5069899;28;20032;-73
2022/07/25 04:17:49;;;;;;;9.82;6.07;;;21.80;99.90;;;;;;5070353;28;20022;-74
2022/07/25 04:20:15;;;;;;;10.77;6.28;;;21.70;99.90;;;;;;5061775;28;20079;-74
2022/07/25 04:22:40;;;;;;;10.55;5.95;;;21.70;99.90;;;;;;5070056;28;20090;-74
2022/07/25 04:25:06;;;;;;;8.80;6.10;;;21.70;99.90;;;;;;5056370;28;20084;-74
2022/07/25 04:27:32;;;;;;;7.03;5.43;;;21.70;99.90;;;;;;5070288;28;20028;-74
2022/07/25 04:29:58;;;;;;;8.40;5.35;;;21.60;99.90;;;;;;5069220;28;20150;-74
2022/07/25 04:32:24;;;;;;;9.45;5.60;;;21.70;99.90;;;;;;5062942;28;20025;-74
2022/07/25 04:34:51;;;;;;;8.80;5.88;;;21.70;99.90;;;;;;5064303;28;20073;-75
2022/07/25 04:37:16;;;;;;;6.88;5.18;;;21.60;99.90;;;;;;5056103;28;20008;-74
2022/07/25 04:39:42;;;;;;;8.40;5.32;;;21.60;99.90;;;;;;5069735;28;20016;-74
2022/07/25 04:42:07;;;;;;;6.35;5.40;;;21.70;99.90;;;;;;5061171;28;20025;-74
2022/07/25 04:44:33;;;;;;;6.68;5.03;;;21.70;99.90;;;;;;5063311;28;20099;-74
2022/07/25 04:46:58;;;;;;;9.88;5.38;;;21.70;99.90;;;;;;5069625;28;20060;-74
2022/07/25 04:49:24;;;;;;;7.95;5.15;;;21.60;99.90;;;;;;5068957;28;20031;-74
2022/07/25 04:51:50;;;;;;;9.02;5.10;;;21.60;99.90;;;;;;5070307;28;20074;-74
2022/07/25 04:54:15;;;;;;;7.35;5.03;;;21.70;99.90;;;;;;5070566;28;20025;-75
2022/07/25 04:56:41;;;;;;;7.95;5.25;;;21.60;99.90;;;;;;5069588;28;20029;-74
2022/07/25 04:59:06;;;;;;;6.15;5.13;;;21.70;99.90;;;;;;5065996;28;20031;-74
2022/07/25 05:01:32;;;;;;;7.43;5.15;;;21.70;99.90;;;;;;5067067;28;20038;-74
2022/07/25 05:03:57;;;;;;;7.20;4.25;;;21.70;99.90;;;;;;5058915;28;20082;-74
2022/07/25 05:06:23;;;;;;;8.02;4.70;;;21.70;99.90;;;;;;5070183;28;20542;-74
2022/07/25 05:08:49;;;;;;;8.23;4.50;;;21.70;99.90;;;;;;5070295;28;20035;-73
2022/07/25 05:11:14;;;;;;;7.45;4.32;;;21.70;99.90;;;;;;5070196;28;20029;-75
2022/07/25 05:13:40;;;;;;;5.47;4.18;;;21.70;99.90;;;;;;5071309;28;20052;-74
2022/07/25 05:16:06;;;;;;;7.78;3.95;;;21.80;99.90;;;;;;5056198;28;20024;-74
2022/07/25 05:18:33;;;;;;;6.03;3.47;;;21.80;99.90;;;;;;5070425;28;20024;-73
2022/07/25 05:20:59;;;;;;;5.38;3.40;;;21.80;99.90;;;;;;5073542;28;20055;-74
2022/07/25 05:23:24;;;;;;;9.07;3.05;;;21.80;99.90;;;;;;5056008;28;20020;-74
2022/07/25 05:25:50;;;;;;;6.68;2.95;;;21.90;99.90;;;;;;5073783;28;20017;-74
2022/07/25 05:28:15;;;;;;;4.18;2.63;;;21.90;99.90;;;;;;5073439;28;20024;-74
2022/07/25 05:30:41;;;;;;;4.43;2.33;;;21.90;99.90;;;;;;5073587;28;20031;-74
2022/07/25 05:33:06;;;;;;;5.20;2.28;;;21.90;99.90;;;;;;5067872;28;20028;-74
2022/07/25 05:35:32;;;;;;;5.85;2.50;;;21.90;99.90;;;;;;5072803;28;20064;-74
2022/07/25 05:37:57;;;;;;;5.13;2.30;;;22.00;99.90;;;;;;5072838;28;20035;-74
2022/07/25 05:40:23;;;;;;;5.43;2.00;;;22.00;99.90;;;;;;5072857;28;20028;-74
2022/07/25 05:42:49;;;;;;;4.60;2.10;;;22.00;99.90;;;;;;5073387;28;20028;-74
2022/07/25 05:45:14;;;;;;;3.78;1.92;;;22.10;99.90;;;;;;5063291;28;20109;-74
2022/07/25 05:47:40;;;;;;;5.88;2.28;;;22.10;99.90;;;;;;5072791;28;20025;-74
2022/07/25 05:50:07;;;;;;;6.05;2.20;;;22.20;99.90;;;;;;5070248;28;20024;-75
2022/07/25 05:52:32;;;;;;;6.68;2.53;;;22.20;99.90;;;;;;5067139;28;20066;-74
2022/07/25 05:54:58;;;;;;;6.65;2.20;;;22.30;99.90;;;;;;5072794;28;20105;-73
2022/07/25 05:57:23;;;;;;;5.05;2.35;;;22.30;99.90;;;;;;5073109;28;20043;-74
2022/07/25 05:59:49;;;;;;;4.50;2.10;;;22.30;99.90;;;;;;5073347;28;20089;-74
2022/07/25 06:02:15;;;;;;;7.05;2.60;;;22.40;99.90;;;;;;5072207;28;20029;-74
2022/07/25 06:04:40;;;;;;;6.93;2.47;;;22.40;99.90;;;;;;5070600;28;20035;-74
2022/07/25 06:07:06;;;;;;;8.52;2.33;;;22.40;99.90;;;;;;5072005;28;20024;-74
2022/07/25 06:09:31;;;;;;;11.43;2.40;;;22.40;99.90;;;;;;5072327;28;20028;-74
2022/07/25 06:11:57;;;;;;;8.05;2.38;;;22.40;99.90;;;;;;5061490;28;20021;-74
2022/07/25 06:14:22;;;;;;;6.35;2.45;;;22.30;99.90;;;;;;5072422;28;20029;-75
2022/07/25 06:16:48;;;;;;;9.07;2.38;;;22.30;99.90;;;;;;5072188;28;20031;-74
2022/07/25 06:19:14;;;;;;;12.57;2.40;;;22.20;99.90;;;;;;5066886;28;20038;-74
2022/07/25 06:21:39;;;;;;;10.80;2.85;;;22.20;99.90;;;;;;5071468;28;20110;-74
2022/07/25 06:24:05;;;;;;;11.65;2.78;;;22.20;99.90;;;;;;5059470;28;20056;-74
2022/07/25 06:26:31;;;;;;;11.23;2.83;;;22.10;99.90;;;;;;5059689;28;20025;-74
2022/07/25 06:28:56;;;;;;;10.50;2.58;;;22.10;99.90;;;;;;5067017;28;20484;-74
2022/07/25 06:31:22;;;;;;;9.18;2.58;;;22.10;99.90;;;;;;5070571;28;20032;-74
2022/07/25 06:33:48;;;;;;;8.20;2.50;;;22.10;99.90;;;;;;5072143;28;20145;-74
2022/07/25 06:36:13;;;;;;;11.60;2.55;;;22.10;99.90;;;;;;5072393;28;20059;-74
2022/07/25 06:38:39;;;;;;;9.50;2.65;;;22.10;99.90;;;;;;5071426;28;20103;-75
2022/07/25 06:41:04;;;;;;;8.68;2.83;;;22.00;99.90;;;;;;5071457;28;20041;-74
2022/07/25 06:43:30;;;;;;;8.48;2.63;;;22.00;99.90;;;;;;5068219;28;20090;-74
2022/07/25 06:45:56;;;;;;;11.88;2.70;;;22.00;99.90;;;;;;5068813;28;20025;-73
2022/07/25 06:48:23;;;;;;;10.27;3.00;;;22.00;99.90;;;;;;5061334;28;20392;-74
2022/07/25 06:50:49;;;;;;;10.18;2.80;;;22.10;99.90;;;;;;5068682;28;20031;-74
2022/07/25 06:53:14;;;;;;;10.00;2.70;;;22.10;99.90;;;;;;5072161;28;20395;-73
2022/07/25 06:55:40;;;;;;;12.73;2.70;;;22.10;99.90;;;;;;5071154;28;20021;-74
2022/07/25 06:58:06;;;;;;;11.57;2.05;;;22.10;99.90;;;;;;5067159;28;20024;-75
2022/07/25 07:00:31;;;;;;;12.55;2.63;;;22.10;99.90;;;;;;5067604;28;20389;-74
2022/07/25 07:03:00;;;;;;;14.52;2.75;;;22.10;99.90;;;;;;5070322;28;20028;-73
2022/07/25 07:05:29;;;;;;;11.15;2.50;;;22.10;99.90;;;;;;5059683;28;20021;-73
2022/07/25 07:07:55;;;;;;;9.30;2.35;;;22.00;99.90;;;;;;5071781;28;20025;-74
2022/07/25 07:10:21;;;;;;;9.95;2.40;;;22.10;99.90;;;;;;5066908;28;20027;-74
2022/07/25 07:12:47;;;;;;;12.50;2.67;;;22.00;99.90;;;;;;5071490;28;20393;-74
2022/07/25 07:15:14;;;;;;;11.77;2.92;;;22.00;99.90;;;;;;5070432;28;20027;-74
2022/07/25 07:17:40;;;;;;;9.73;2.60;;;22.00;99.90;;;;;;5070807;28;20035;-74
2022/07/25 07:20:06;;;;;;;9.15;2.45;;;22.00;99.90;;;;;;5062038;28;20389;-73
2022/07/25 07:22:43;;;;;;;10.63;2.40;;;22.00;99.90;;;;;;5061592;28;20044;-75
2022/07/25 07:25:08;;;;;;;12.27;2.88;;;22.00;99.90;;;;;;5071786;28;20024;-75
2022/07/25 07:27:34;;;;;;;12.55;2.83;;;22.00;99.90;;;;;;5071052;28;20082;-74
2022/07/25 07:29:59;;;;;;;10.15;2.65;;;22.00;99.90;;;;;;5070160;28;20388;-74
2022/07/25 07:32:25;;;;;;;9.48;2.53;;;22.00;99.90;;;;;;5070594;28;20038;-74
2022/07/25 07:34:50;;;;;;;11.80;2.80;;;22.00;99.90;;;;;;5070839;28;20408;-74
2022/07/25 07:37:16;;;;;;;9.23;2.70;;;22.10;99.90;;;;;;5056206;28;20371;-73
2022/07/25 07:39:41;;;;;;;12.07;3.00;;;22.10;99.90;;;;;;5070902;28;20602;-73
2022/07/25 07:42:07;;;;;;;10.35;2.60;;;22.10;99.90;;;;;;5064552;28;20488;-73
2022/07/25 07:44:33;;;;;;;11.23;2.47;;;22.00;99.90;;;;;;5070906;28;20033;-74
2022/07/25 07:47:01;;;;;;;10.15;2.80;;;22.00;99.90;;;;;;5070821;28;20025;-75
2022/07/25 07:49:27;;;;;;;7.38;2.70;;;21.90;99.90;;;;;;5067762;28;20044;-74
2022/07/25 07:51:52;;;;;;;11.55;2.85;;;22.00;99.90;;;;;;5070797;28;20388;-75
2022/07/25 07:57:02;;;;;;;9.57;2.58;;;22.20;99.90;;;;;;5070287;28;20054;-74
2022/07/25 07:59:28;;;;;;;11.15;2.67;;;22.40;99.90;;;;;;5070610;28;20032;-73
2022/07/25 08:01:53;;;;;;;7.15;2.30;;;22.50;99.90;;;;;;5065980;28;20041;-75
2022/07/25 08:04:19;;;;;;;8.93;2.45;;;22.60;99.90;;;;;;5070659;28;20032;-74
2022/07/25 08:06:44;;;;;;;7.95;2.28;;;22.60;99.90;;;;;;5056624;28;20016;-73
2022/07/25 08:09:10;;;;;;;8.75;2.28;;;22.70;99.90;;;;;;5070355;28;20108;-74
2022/07/25 08:11:35;;;;;;;7.93;2.42;;;22.70;99.90;;;;;;5068835;28;20024;-74
2022/07/25 08:14:01;;;;;;;5.60;1.92;;;22.70;99.90;;;;;;5066749;28;20028;-75
2022/07/25 08:16:26;;;;;;;5.07;1.92;;;22.70;99.90;;;;;;5070668;28;20527;-74
2022/07/25 08:18:52;;;;;;;5.53;2.08;;;22.70;99.90;;;;;;5066795;28;20361;-74
2022/07/25 08:21:18;;;;;;;9.40;2.72;;;22.90;99.90;;;;;;5070429;28;20056;-74
2022/07/25 08:23:45;;;;;;;8.77;2.15;;;23.00;99.90;;;;;;5070336;28;20016;-74
2022/07/25 08:26:13;;;;;;;9.65;2.40;;;23.10;99.90;;;;;;5070764;28;20068;-73
2022/07/25 08:28:39;;;;;;;7.00;2.00;;;23.20;99.90;;;;;;5070263;28;20024;-75
2022/07/25 08:31:05;;;;;;;8.88;2.00;;;23.30;99.90;;;;;;5070803;28;20385;-74
2022/07/25 08:33:31;;;;;;;8.68;2.10;;;23.40;99.90;;;;;;5069942;28;20032;-75
2022/07/25 08:35:57;;;;;;;10.25;2.20;;;23.50;99.90;;;;;;5070608;28;20021;-75
2022/07/25 08:38:24;;;;;;;8.85;2.10;;;23.70;99.90;;;;;;5069657;28;20025;-74
2022/07/25 08:40:51;;;;;;;10.23;2.08;;;23.80;99.90;;;;;;5056393;28;20490;-73
2022/07/25 08:43:18;;;;;;;5.18;1.95;;;24.10;99.90;;;;;;5069522;28;20032;-75
2022/07/25 08:45:52;;;;;;;7.10;2.25;;;24.30;99.90;;;;;;5067637;28;20031;-73
2022/07/25 08:48:20;;;;;;;9.10;2.30;;;24.40;99.90;;;;;;5060910;28;20029;-75
2022/07/25 08:50:47;;;;;;;8.65;2.05;;;24.40;99.90;;;;;;5069926;28;20032;-73
2022/07/25 08:53:15;;;;;;;6.82;2.00;;;24.30;99.90;;;;;;5070531;28;20024;-74
2022/07/25 08:55:42;;;;;;;9.85;2.50;;;24.20;99.90;;;;;;5073882;28;20020;-74
2022/07/25 08:58:10;;;;;;;9.15;1.98;;;24.10;99.90;;;;;;5072263;28;20384;-73
2022/07/25 09:00:36;;;;;;;10.90;2.67;;;23.90;99.90;;;;;;5063857;28;20020;-76
2022/07/25 09:03:05;;;;;;;8.57;2.63;;;23.80;99.90;;;;;;5073510;28;20411;-75
2022/07/25 09:05:31;;;;;;;16.92;2.95;;;23.70;99.90;;;;;;5074351;28;20032;-75
2022/07/25 09:08:04;;;;;;;8.07;2.55;;;23.70;99.90;;;;;;5072998;28;20043;-77
2022/07/25 09:10:30;;;;;;;14.23;3.05;;;23.60;99.90;;;;;;5072314;28;20372;-74
2022/07/25 09:12:58;;;;;;;11.50;3.17;;;23.50;99.90;;;;;;5054508;28;20348;-75
2022/07/25 09:15:32;;;;;;;9.18;2.92;;;23.50;99.90;;;;;;5068953;28;20048;-74
2022/07/25 09:18:00;;;;;;;7.65;2.45;;;23.50;99.90;;;;;;5068782;28;20105;-74
2022/07/25 09:20:44;;;;;;;7.75;2.33;;;23.40;99.90;;;;;;5065727;28;20052;-73
2022/07/25 09:23:25;;;;;;;11.82;2.80;;;23.40;99.90;;;;;;5064180;28;20813;-74
2022/07/25 09:25:50;;;;;;;44.78;29.58;;;23.40;99.90;;;;;;5061385;28;20031;-74
2022/07/25 09:28:17;;;;;;;36.42;20.90;;;23.30;99.90;;;;;;5070271;28;20112;-74
2022/07/25 09:30:58;;;;;;;37.88;22.80;;;23.40;99.90;;;;;;5073547;28;20361;-74
2022/07/25 09:33:25;;;;;;;9.93;2.88;;;23.60;99.90;;;;;;5073200;28;20033;-74
2022/07/25 09:35:51;;;;;;;9.23;2.65;;;23.70;99.90;;;;;;5070770;28;20028;-74
2022/07/25 09:38:18;;;;;;;11.35;2.70;;;23.80;99.90;;;;;;5064977;28;20109;-73
2022/07/25 09:40:58;;;;;;;11.50;2.85;;;23.90;99.90;;;;;;5068967;28;20025;-74
2022/07/25 09:43:43;;;;;;;20.70;13.90;;;24.10;99.90;;;;;;5063838;28;20024;-74
2022/07/25 09:46:11;;;;;;;19.58;10.70;;;24.20;99.90;;;;;;5054434;28;20041;-75
2022/07/25 09:48:38;;;;;;;31.02;18.17;;;24.20;99.90;;;;;;5065980;28;20031;-75
2022/07/25 09:51:06;;;;;;;15.57;3.58;;;24.20;99.90;;;;;;5068599;28;20063;-74
2022/07/25 09:53:32;;;;;;;13.52;3.15;;;24.20;99.90;;;;;;5064527;28;20020;-73
2022/07/25 09:56:00;;;;;;;13.02;3.42;;;24.20;99.90;;;;;;5068094;28;20033;-73
2022/07/25 09:58:27;;;;;;;10.40;3.05;;;24.20;99.90;;;;;;5071014;28;20373;-75
2022/07/25 10:00:59;;;;;;;10.10;3.10;;;24.20;99.90;;;;;;5070966;28;20032;-75
2022/07/25 10:03:36;;;;;;;12.07;2.78;;;24.30;99.90;;;;;;5067099;28;20041;-73
2022/07/25 10:06:14;;;;;;;11.90;3.13;;;24.30;99.10;;;;;;5064667;28;20093;-73
2022/07/25 10:08:40;;;;;;;10.63;2.88;;;24.20;98.80;;;;;;5067088;28;20029;-74
2022/07/25 10:11:18;;;;;;;10.32;3.03;;;24.10;98.70;;;;;;5066019;28;20416;-77
2022/07/25 10:13:44;;;;;;;22.35;10.43;;;23.90;99.00;;;;;;5071411;28;20043;-76
2022/07/25 10:16:21;;;;;;;22.05;7.38;;;23.90;99.30;;;;;;5069723;28;20044;-74
2022/07/25 10:18:57;;;;;;;44.50;28.33;;;23.80;99.80;;;;;;5064496;28;20341;-75
2022/07/25 10:21:25;;;;;;;17.92;5.35;;;23.70;99.90;;;;;;5069176;28;20041;-74
2022/07/25 10:24:05;;;;;;;11.82;3.55;;;23.70;99.90;;;;;;5073518;28;20486;-74
2022/07/25 10:26:32;;;;;;;11.02;3.58;;;23.80;99.90;;;;;;5068936;28;20032;-74
2022/07/25 10:28:58;;;;;;;20.83;8.25;;;23.90;99.90;;;;;;5072736;28;20043;-76
2022/07/25 10:31:33;;;;;;;19.52;7.68;;;23.90;99.60;;;;;;5072044;28;20032;-74
2022/07/25 10:34:01;;;;;;;13.40;3.97;;;23.90;99.60;;;;;;5070424;28;20082;-77
2022/07/25 10:36:43;;;;;;;12.98;3.45;;;23.90;99.60;;;;;;5072795;28;20116;-77
2022/07/25 10:39:12;;;;;;;16.45;3.60;;;23.90;99.80;;;;;;5062997;28;20483;-76
2022/07/25 10:41:39;;;;;;;17.33;4.00;;;23.90;99.60;;;;;;5073510;28;20051;-78
2022/07/25 10:44:12;;;;;;;11.75;3.40;;;24.00;99.50;;;;;;5062816;28;20063;-76
2022/07/25 10:46:37;;;;;;;12.77;3.42;;;24.00;99.20;;;;;;5073396;28;20039;-75
2022/07/25 10:49:05;;;;;;;10.93;3.15;;;24.00;99.30;;;;;;5071924;28;20017;-76
2022/07/25 10:51:35;;;;;;;13.60;3.38;;;24.00;99.20;;;;;;5072472;28;20021;-79
2022/07/25 10:54:16;;;;;;;15.10;3.53;;;24.00;98.80;;;;;;5068833;28;20029;-76
2022/07/25 10:56:58;;;;;;;17.05;3.38;;;24.00;98.80;;;;;;5070887;28;20020;-79
2022/07/25 10:59:35;;;;;;;14.90;3.50;;;24.00;98.60;;;;;;5076174;28;20107;-77
2022/07/25 11:02:03;;;;;;;15.82;3.60;;;24.00;98.80;;;;;;5064171;28;20028;-74
2022/07/25 11:04:29;;;;;;;15.98;3.92;;;23.90;98.80;;;;;;5073023;28;20025;-73
2022/07/25 11:06:55;;;;;;;15.05;3.35;;;23.80;98.20;;;;;;5066701;28;20465;-73
2022/07/25 11:09:23;;;;;;;14.73;3.78;;;23.70;98.40;;;;;;5068808;28;20065;-73
2022/07/25 11:11:50;;;;;;;14.95;3.45;;;23.60;98.50;;;;;;5073192;28;20024;-73
2022/07/25 11:14:23;;;;;;;14.05;3.60;;;23.40;98.40;;;;;;5064515;28;20021;-75
2022/07/25 11:16:52;;;;;;;14.07;3.63;;;23.30;98.80;;;;;;5070534;28;20392;-73
2022/07/25 11:19:22;;;;;;;15.10;3.40;;;23.30;98.90;;;;;;5064441;28;20025;-73
2022/07/25 11:21:54;;;;;;;14.23;3.03;;;23.30;98.90;;;;;;5070356;28;20055;-73
2022/07/25 11:24:20;;;;;;;15.10;3.03;;;23.30;98.10;;;;;;5072210;28;20021;-74
2022/07/25 11:26:52;;;;;;;15.27;2.92;;;23.20;97.50;;;;;;5071478;28;20028;-73
2022/07/25 11:29:23;;;;;;;10.80;2.60;;;23.20;97.40;;;;;;5074041;28;20016;-74
2022/07/25 11:31:57;;;;;;;18.05;3.05;;;23.30;96.10;;;;;;5070151;28;20020;-75
2022/07/25 11:34:29;;;;;;;11.73;2.65;;;23.20;95.10;;;;;;5079126;28;20028;-74
2022/07/25 11:36:56;;;;;;;9.38;2.53;;;23.10;94.50;;;;;;5073995;28;20020;-74
2022/07/25 11:39:27;;;;;;;12.18;2.50;;;23.10;94.70;;;;;;5076879;28;20024;-74
2022/07/25 11:42:07;;;;;;;10.95;2.50;;;23.10;94.70;;;;;;5070003;28;20024;-74
2022/07/25 11:44:43;;;;;;;16.67;5.85;;;23.20;94.20;;;;;;5074315;28;20020;-75
2022/07/25 11:47:27;;;;;;;16.08;3.45;;;23.40;93.70;;;;;;5077179;28;20067;-74
2022/07/25 11:49:54;;;;;;;15.15;5.85;;;23.50;93.90;;;;;;5074990;28;20027;-74
2022/07/25 11:52:29;;;;;;;32.00;14.93;;;23.60;94.00;;;;;;5073758;28;20420;-75
2022/07/25 11:55:07;;;;;;;26.52;10.38;;;23.70;94.20;;;;;;5079218;28;20133;-73
2022/07/25 11:57:43;;;;;;;20.83;4.88;;;23.90;93.60;;;;;;5072887;28;20040;-74
2022/07/25 12:00:20;;;;;;;16.85;3.33;;;24.00;92.90;;;;;;5070470;28;20166;-74
2022/07/25 12:02:47;;;;;;;12.75;2.38;;;24.10;92.20;;;;;;5068166;28;20166;-74
2022/07/25 12:05:17;;;;;;;16.10;2.30;;;24.20;91.50;;;;;;5063254;28;20020;-73
2022/07/25 12:07:47;;;;;;;11.20;1.95;;;24.20;90.60;;;;;;5068202;28;20013;-74
2022/07/25 12:10:20;;;;;;;10.73;2.70;;;24.20;90.40;;;;;;5075016;28;20047;-74
2022/07/25 12:12:49;;;;;;;9.98;2.17;;;24.10;90.50;;;;;;5076736;28;20308;-73
2022/07/25 12:15:26;;;;;;;12.85;2.42;;;24.00;90.60;;;;;;5061576;28;20021;-74
2022/07/25 12:17:53;;;;;;;10.18;2.60;;;24.00;90.90;;;;;;5075957;28;20028;-74
2022/07/25 12:20:24;;;;;;;12.25;2.28;;;24.00;91.30;;;;;;5075676;28;20497;-74
2022/07/25 12:22:54;;;;;;;12.00;2.28;;;24.10;91.10;;;;;;5064930;28;20110;-73
2022/07/25 12:25:20;;;;;;;15.35;2.47;;;24.10;91.00;;;;;;5071758;28;20033;-74
2022/07/25 12:27:46;;;;;;;16.55;2.40;;;24.20;90.10;;;;;;5056382;28;20040;-73
2022/07/25 12:30:12;;;;;;;11.75;2.10;;;24.20;87.70;;;;;;5060930;28;20543;-75
2022/07/25 12:32:38;;;;;;;13.77;2.60;;;24.20;87.90;;;;;;5075370;28;20115;-74
2022/07/25 12:35:05;;;;;;;16.10;2.45;;;24.20;88.90;;;;;;5074848;28;20048;-74
2022/07/25 12:37:31;;;;;;;16.95;2.67;;;24.30;90.10;;;;;;5059915;28;20025;-74
2022/07/25 12:39:57;;;;;;;9.38;2.45;;;24.50;90.20;;;;;;5072450;28;20081;-73
2022/07/25 12:42:23;;;;;;;14.88;2.40;;;24.50;89.80;;;;;;5073582;28;20409;-73
2022/07/25 12:44:48;;;;;;;11.00;2.40;;;24.40;88.80;;;;;;5073944;28;20103;-74